sensor_id;sensor_type;location;lat;lon;timestamp;P1;durP1;ratioP1;P2;durP2;ratioP2
62957;SDS011;49056;48.352;10.926;2023-06-19T00:04:17;3.92;;;2.72;;
62957;SDS011;49056;48.352;10.926;2023-06-19T00:09:38;3.47;;;2.67;;
62957;SDS011;49056;48.352;10.926;2023-06-19T00:14:58;3.97;;;2.63;;
62957;SDS011;49056;48.352;10.926;2023-06-19T00:20:18;4.00;;;2.63;;
62957;SDS011;49056;48.352;10.926;2023-06-19T00:25:41;3.53;;;2.50;;
62957;SDS011;49056;48.352;10.926;2023-06-19T00:31:03;4.45;;;2.90;;
62957;SDS011;49056;48.352;10.926;2023-06-19T00:36:26;3.15;;;2.28;;
62957;SDS011;49056;48.352;10.926;2023-06-19T00:41:47;4.00;;;2.60;;
62957;SDS011;49056;48.352;10.926;2023-06-19T00:47:08;3.62;;;2.67;;
62957;SDS011;49056;48.352;10.926;2023-06-19T00:52:28;3.87;;;2.87;;
62957;SDS011;49056;48.352;10.926;2023-06-19T00:57:49;4.32;;;2.87;;
62957;SDS011;49056;48.352;10.926;2023-06-19T01:03:10;4.15;;;2.78;;
62957;SDS011;49056;48.352;10.926;2023-06-19T01:08:45;4.20;;;3.03;;
62957;SDS011;49056;48.352;10.926;2023-06-19T01:14:15;4.00;;;2.85;;
62957;SDS011;49056;48.352;10.926;2023-06-19T01:19:38;4.03;;;2.72;;
62957;SDS011;49056;48.352;10.926;2023-06-19T01:24:59;4.03;;;2.83;;
62957;SDS011;49056;48.352;10.926;2023-06-19T01:30:19;4.17;;;3.10;;
62957;SDS011;49056;48.352;10.926;2023-06-19T01:35:40;4.03;;;3.00;;
62957;SDS011;49056;48.352;10.926;2023-06-19T01:41:02;3.72;;;2.53;;
62957;SDS011;49056;48.352;10.926;2023-06-19T01:46:22;3.53;;;2.70;;
62957;SDS011;49056;48.352;10.926;2023-06-19T01:51:43;3.70;;;2.50;;
62957;SDS011;49056;48.352;10.926;2023-06-19T01:57:03;3.50;;;2.12;;
62957;SDS011;49056;48.352;10.926;2023-06-19T02:02:23;3.97;;;2.77;;
62957;SDS011;49056;48.352;10.926;2023-06-19T02:07:44;3.83;;;2.43;;
62957;SDS011;49056;48.352;10.926;2023-06-19T02:13:04;4.53;;;3.30;;
62957;SDS011;49056;48.352;10.926;2023-06-19T02:18:24;3.67;;;2.83;;
62957;SDS011;49056;48.352;10.926;2023-06-19T02:23:45;4.12;;;3.20;;
62957;SDS011;49056;48.352;10.926;2023-06-19T02:29:05;3.45;;;2.47;;
62957;SDS011;49056;48.352;10.926;2023-06-19T02:34:26;4.40;;;2.72;;
62957;SDS011;49056;48.352;10.926;2023-06-19T02:39:46;4.37;;;2.83;;
62957;SDS011;49056;48.352;10.926;2023-06-19T02:45:06;4.07;;;2.62;;
62957;SDS011;49056;48.352;10.926;2023-06-19T02:50:27;4.37;;;3.08;;
62957;SDS011;49056;48.352;10.926;2023-06-19T02:55:47;3.80;;;2.80;;
62957;SDS011;49056;48.352;10.926;2023-06-19T03:01:07;3.92;;;2.75;;
62957;SDS011;49056;48.352;10.926;2023-06-19T03:06:28;3.42;;;2.50;;
62957;SDS011;49056;48.352;10.926;2023-06-19T03:11:49;3.85;;;2.60;;
62957;SDS011;49056;48.352;10.926;2023-06-19T03:17:09;3.55;;;2.58;;
62957;SDS011;49056;48.352;10.926;2023-06-19T03:22:29;3.65;;;2.25;;
62957;SDS011;49056;48.352;10.926;2023-06-19T03:27:49;5.03;;;2.92;;
62957;SDS011;49056;48.352;10.926;2023-06-19T03:33:10;3.92;;;2.62;;
62957;SDS011;49056;48.352;10.926;2023-06-19T03:38:30;3.95;;;2.62;;
62957;SDS011;49056;48.352;10.926;2023-06-19T03:43:51;3.83;;;2.62;;
62957;SDS011;49056;48.352;10.926;2023-06-19T03:49:11;3.83;;;2.83;;
62957;SDS011;49056;48.352;10.926;2023-06-19T03:54:31;3.97;;;2.50;;
62957;SDS011;49056;48.352;10.926;2023-06-19T03:59:51;4.82;;;2.92;;
62957;SDS011;49056;48.352;10.926;2023-06-19T04:05:14;3.95;;;2.62;;
62957;SDS011;49056;48.352;10.926;2023-06-19T04:10:35;3.12;;;2.12;;
62957;SDS011;49056;48.352;10.926;2023-06-19T04:15:56;3.35;;;2.55;;
62957;SDS011;49056;48.352;10.926;2023-06-19T04:21:16;4.20;;;2.67;;
62957;SDS011;49056;48.352;10.926;2023-06-19T04:26:36;3.50;;;2.30;;
62957;SDS011;49056;48.352;10.926;2023-06-19T04:32:00;3.33;;;2.60;;
62957;SDS011;49056;48.352;10.926;2023-06-19T04:37:23;4.40;;;2.75;;
62957;SDS011;49056;48.352;10.926;2023-06-19T04:42:44;4.93;;;3.08;;
62957;SDS011;49056;48.352;10.926;2023-06-19T04:48:04;4.18;;;2.83;;
62957;SDS011;49056;48.352;10.926;2023-06-19T04:53:24;3.90;;;2.80;;
62957;SDS011;49056;48.352;10.926;2023-06-19T04:58:45;3.62;;;2.37;;
62957;SDS011;49056;48.352;10.926;2023-06-19T05:04:09;4.22;;;2.60;;
62957;SDS011;49056;48.352;10.926;2023-06-19T05:09:31;3.72;;;2.53;;
62957;SDS011;49056;48.352;10.926;2023-06-19T05:14:51;4.27;;;2.43;;
62957;SDS011;49056;48.352;10.926;2023-06-19T05:20:12;3.80;;;2.67;;
62957;SDS011;49056;48.352;10.926;2023-06-19T05:25:32;3.53;;;2.22;;
62957;SDS011;49056;48.352;10.926;2023-06-19T05:30:52;3.73;;;2.40;;
62957;SDS011;49056;48.352;10.926;2023-06-19T05:36:13;4.43;;;2.87;;
62957;SDS011;49056;48.352;10.926;2023-06-19T05:41:33;3.78;;;2.75;;
62957;SDS011;49056;48.352;10.926;2023-06-19T05:46:53;4.55;;;3.03;;
62957;SDS011;49056;48.352;10.926;2023-06-19T05:52:14;3.90;;;2.30;;
62957;SDS011;49056;48.352;10.926;2023-06-19T05:57:34;3.67;;;2.28;;
62957;SDS011;49056;48.352;10.926;2023-06-19T06:02:54;3.93;;;2.40;;
62957;SDS011;49056;48.352;10.926;2023-06-19T06:08:15;3.45;;;2.55;;
62957;SDS011;49056;48.352;10.926;2023-06-19T06:13:35;3.80;;;2.62;;
62957;SDS011;49056;48.352;10.926;2023-06-19T06:18:56;3.33;;;2.27;;
62957;SDS011;49056;48.352;10.926;2023-06-19T06:24:16;3.70;;;2.50;;
62957;SDS011;49056;48.352;10.926;2023-06-19T06:29:37;4.32;;;2.95;;
62957;SDS011;49056;48.352;10.926;2023-06-19T06:34:57;3.70;;;2.47;;
62957;SDS011;49056;48.352;10.926;2023-06-19T06:40:18;2.85;;;2.17;;
62957;SDS011;49056;48.352;10.926;2023-06-19T06:45:39;4.07;;;2.20;;
62957;SDS011;49056;48.352;10.926;2023-06-19T06:51:01;3.25;;;2.28;;
62957;SDS011;49056;48.352;10.926;2023-06-19T06:56:22;3.17;;;2.35;;
62957;SDS011;49056;48.352;10.926;2023-06-19T07:01:42;4.23;;;2.70;;
62957;SDS011;49056;48.352;10.926;2023-06-19T07:07:03;2.92;;;2.08;;
62957;SDS011;49056;48.352;10.926;2023-06-19T07:12:26;3.67;;;2.40;;
62957;SDS011;49056;48.352;10.926;2023-06-19T07:17:46;4.40;;;2.57;;
62957;SDS011;49056;48.352;10.926;2023-06-19T07:23:06;3.75;;;2.17;;
62957;SDS011;49056;48.352;10.926;2023-06-19T07:28:27;3.12;;;2.22;;
62957;SDS011;49056;48.352;10.926;2023-06-19T07:33:47;3.25;;;2.28;;
62957;SDS011;49056;48.352;10.926;2023-06-19T07:39:07;3.27;;;2.33;;
62957;SDS011;49056;48.352;10.926;2023-06-19T07:44:28;2.93;;;2.03;;
62957;SDS011;49056;48.352;10.926;2023-06-19T07:49:48;3.40;;;2.30;;
62957;SDS011;49056;48.352;10.926;2023-06-19T07:55:08;3.00;;;1.97;;
62957;SDS011;49056;48.352;10.926;2023-06-19T08:00:29;2.73;;;1.90;;
62957;SDS011;49056;48.352;10.926;2023-06-19T08:05:49;3.80;;;1.87;;
62957;SDS011;49056;48.352;10.926;2023-06-19T08:11:09;3.40;;;2.22;;
62957;SDS011;49056;48.352;10.926;2023-06-19T08:16:30;3.50;;;1.90;;
62957;SDS011;49056;48.352;10.926;2023-06-19T08:21:50;3.57;;;2.27;;
62957;SDS011;49056;48.352;10.926;2023-06-19T08:27:10;4.53;;;2.13;;
62957;SDS011;49056;48.352;10.926;2023-06-19T08:32:31;3.10;;;1.75;;
62957;SDS011;49056;48.352;10.926;2023-06-19T08:37:51;3.07;;;1.70;;
62957;SDS011;49056;48.352;10.926;2023-06-19T08:43:11;2.55;;;1.67;;
62957;SDS011;49056;48.352;10.926;2023-06-19T08:48:34;2.83;;;1.77;;
62957;SDS011;49056;48.352;10.926;2023-06-19T08:53:55;2.95;;;1.70;;
62957;SDS011;49056;48.352;10.926;2023-06-19T08:59:17;3.58;;;2.17;;
62957;SDS011;49056;48.352;10.926;2023-06-19T09:04:37;3.08;;;1.70;;
62957;SDS011;49056;48.352;10.926;2023-06-19T09:09:57;2.50;;;1.60;;
62957;SDS011;49056;48.352;10.926;2023-06-19T09:15:18;2.35;;;1.48;;
62957;SDS011;49056;48.352;10.926;2023-06-19T09:20:41;2.95;;;1.80;;
62957;SDS011;49056;48.352;10.926;2023-06-19T09:26:04;3.08;;;1.83;;
62957;SDS011;49056;48.352;10.926;2023-06-19T09:31:33;2.78;;;1.80;;
62957;SDS011;49056;48.352;10.926;2023-06-19T09:36:54;3.08;;;2.00;;
62957;SDS011;49056;48.352;10.926;2023-06-19T09:42:15;2.60;;;1.95;;
62957;SDS011;49056;48.352;10.926;2023-06-19T09:47:37;3.45;;;1.83;;
62957;SDS011;49056;48.352;10.926;2023-06-19T09:52:58;2.65;;;1.70;;
62957;SDS011;49056;48.352;10.926;2023-06-19T09:58:19;2.43;;;1.50;;
62957;SDS011;49056;48.352;10.926;2023-06-19T10:03:40;2.35;;;1.60;;
62957;SDS011;49056;48.352;10.926;2023-06-19T10:09:07;2.80;;;1.83;;
62957;SDS011;49056;48.352;10.926;2023-06-19T10:14:28;2.92;;;1.90;;
62957;SDS011;49056;48.352;10.926;2023-06-19T10:19:49;2.57;;;1.97;;
62957;SDS011;49056;48.352;10.926;2023-06-19T10:25:19;3.72;;;1.87;;
62957;SDS011;49056;48.352;10.926;2023-06-19T10:30:39;4.85;;;2.12;;
62957;SDS011;49056;48.352;10.926;2023-06-19T10:36:00;4.20;;;1.77;;
62957;SDS011;49056;48.352;10.926;2023-06-19T10:41:25;3.08;;;2.00;;
62957;SDS011;49056;48.352;10.926;2023-06-19T10:46:45;2.87;;;2.03;;
62957;SDS011;49056;48.352;10.926;2023-06-19T10:52:05;3.78;;;2.17;;
62957;SDS011;49056;48.352;10.926;2023-06-19T10:57:29;2.78;;;1.58;;
62957;SDS011;49056;48.352;10.926;2023-06-19T11:02:50;3.15;;;1.58;;
62957;SDS011;49056;48.352;10.926;2023-06-19T11:08:11;2.55;;;1.62;;
62957;SDS011;49056;48.352;10.926;2023-06-19T11:13:36;2.83;;;1.67;;
62957;SDS011;49056;48.352;10.926;2023-06-19T11:18:57;1.77;;;1.20;;
62957;SDS011;49056;48.352;10.926;2023-06-19T11:24:18;1.75;;;1.30;;
62957;SDS011;49056;48.352;10.926;2023-06-19T11:29:38;2.17;;;1.50;;
62957;SDS011;49056;48.352;10.926;2023-06-19T11:35:05;2.03;;;1.58;;
62957;SDS011;49056;48.352;10.926;2023-06-19T11:40:27;2.15;;;1.30;;
62957;SDS011;49056;48.352;10.926;2023-06-19T11:45:49;2.95;;;1.50;;
62957;SDS011;49056;48.352;10.926;2023-06-19T11:51:09;2.60;;;1.55;;
62957;SDS011;49056;48.352;10.926;2023-06-19T11:56:30;2.53;;;1.50;;
62957;SDS011;49056;48.352;10.926;2023-06-19T12:01:50;1.93;;;1.33;;
62957;SDS011;49056;48.352;10.926;2023-06-19T12:07:10;2.10;;;1.50;;
62957;SDS011;49056;48.352;10.926;2023-06-19T12:12:31;2.87;;;1.50;;
62957;SDS011;49056;48.352;10.926;2023-06-19T12:17:52;1.75;;;1.30;;
62957;SDS011;49056;48.352;10.926;2023-06-19T12:23:12;2.05;;;1.40;;
62957;SDS011;49056;48.352;10.926;2023-06-19T12:28:32;1.60;;;1.12;;
62957;SDS011;49056;48.352;10.926;2023-06-19T12:33:53;2.05;;;1.17;;
62957;SDS011;49056;48.352;10.926;2023-06-19T12:39:13;2.28;;;1.30;;
62957;SDS011;49056;48.352;10.926;2023-06-19T12:44:36;2.40;;;1.27;;
62957;SDS011;49056;48.352;10.926;2023-06-19T12:49:56;2.28;;;1.30;;
62957;SDS011;49056;48.352;10.926;2023-06-19T12:55:17;2.03;;;1.43;;
62957;SDS011;49056;48.352;10.926;2023-06-19T13:00:37;2.12;;;1.25;;
62957;SDS011;49056;48.352;10.926;2023-06-19T13:05:57;2.20;;;1.20;;
62957;SDS011;49056;48.352;10.926;2023-06-19T13:11:17;1.80;;;0.93;;
62957;SDS011;49056;48.352;10.926;2023-06-19T13:16:38;1.85;;;1.15;;
62957;SDS011;49056;48.352;10.926;2023-06-19T13:21:58;1.52;;;1.00;;
62957;SDS011;49056;48.352;10.926;2023-06-19T13:27:18;2.37;;;1.30;;
62957;SDS011;49056;48.352;10.926;2023-06-19T13:32:39;1.30;;;1.10;;
62957;SDS011;49056;48.352;10.926;2023-06-19T13:37:59;2.78;;;1.65;;
62957;SDS011;49056;48.352;10.926;2023-06-19T13:43:20;1.12;;;0.80;;
62957;SDS011;49056;48.352;10.926;2023-06-19T13:48:43;1.65;;;1.05;;
62957;SDS011;49056;48.352;10.926;2023-06-19T13:54:03;2.20;;;1.17;;
62957;SDS011;49056;48.352;10.926;2023-06-19T13:59:24;2.40;;;1.17;;
62957;SDS011;49056;48.352;10.926;2023-06-19T14:04:44;1.67;;;1.20;;
62957;SDS011;49056;48.352;10.926;2023-06-19T14:10:05;2.97;;;1.30;;
62957;SDS011;49056;48.352;10.926;2023-06-19T14:15:25;2.33;;;1.30;;
62957;SDS011;49056;48.352;10.926;2023-06-19T14:20:46;1.67;;;1.17;;
62957;SDS011;49056;48.352;10.926;2023-06-19T14:26:06;2.35;;;1.12;;
62957;SDS011;49056;48.352;10.926;2023-06-19T14:31:27;1.83;;;1.10;;
62957;SDS011;49056;48.352;10.926;2023-06-19T14:36:47;2.95;;;1.40;;
62957;SDS011;49056;48.352;10.926;2023-06-19T14:42:08;2.97;;;1.80;;
62957;SDS011;49056;48.352;10.926;2023-06-19T14:47:28;2.23;;;1.33;;
62957;SDS011;49056;48.352;10.926;2023-06-19T14:52:49;1.87;;;1.30;;
62957;SDS011;49056;48.352;10.926;2023-06-19T14:58:09;2.20;;;1.40;;
62957;SDS011;49056;48.352;10.926;2023-06-19T15:03:29;2.30;;;1.40;;
62957;SDS011;49056;48.352;10.926;2023-06-19T15:08:49;2.40;;;1.35;;
62957;SDS011;49056;48.352;10.926;2023-06-19T15:14:10;2.47;;;1.00;;
62957;SDS011;49056;48.352;10.926;2023-06-19T15:19:30;2.30;;;1.40;;
62957;SDS011;49056;48.352;10.926;2023-06-19T15:24:51;1.80;;;1.30;;
62957;SDS011;49056;48.352;10.926;2023-06-19T15:30:11;1.90;;;1.27;;
62957;SDS011;49056;48.352;10.926;2023-06-19T15:35:31;1.40;;;1.02;;
62957;SDS011;49056;48.352;10.926;2023-06-19T15:40:52;2.03;;;1.30;;
62957;SDS011;49056;48.352;10.926;2023-06-19T15:46:15;1.90;;;1.25;;
62957;SDS011;49056;48.352;10.926;2023-06-19T15:51:35;2.17;;;1.17;;
62957;SDS011;49056;48.352;10.926;2023-06-19T15:56:56;1.87;;;1.20;;
62957;SDS011;49056;48.352;10.926;2023-06-19T16:02:16;1.70;;;1.10;;
62957;SDS011;49056;48.352;10.926;2023-06-19T16:07:36;2.05;;;1.10;;
62957;SDS011;49056;48.352;10.926;2023-06-19T16:12:56;1.60;;;1.02;;
62957;SDS011;49056;48.352;10.926;2023-06-19T16:18:17;2.22;;;1.40;;
62957;SDS011;49056;48.352;10.926;2023-06-19T16:23:37;2.35;;;1.10;;
62957;SDS011;49056;48.352;10.926;2023-06-19T16:28:59;1.92;;;1.10;;
62957;SDS011;49056;48.352;10.926;2023-06-19T16:34:20;1.33;;;1.00;;
62957;SDS011;49056;48.352;10.926;2023-06-19T16:39:40;1.85;;;1.10;;
62957;SDS011;49056;48.352;10.926;2023-06-19T16:45:00;1.45;;;1.17;;
62957;SDS011;49056;48.352;10.926;2023-06-19T16:50:21;1.93;;;1.07;;
62957;SDS011;49056;48.352;10.926;2023-06-19T16:55:41;2.35;;;1.58;;
62957;SDS011;49056;48.352;10.926;2023-06-19T17:01:01;1.92;;;1.33;;
62957;SDS011;49056;48.352;10.926;2023-06-19T17:06:22;2.83;;;1.10;;
62957;SDS011;49056;48.352;10.926;2023-06-19T17:11:42;1.80;;;1.10;;
62957;SDS011;49056;48.352;10.926;2023-06-19T17:17:03;2.10;;;1.20;;
62957;SDS011;49056;48.352;10.926;2023-06-19T17:22:23;1.47;;;1.13;;
62957;SDS011;49056;48.352;10.926;2023-06-19T17:27:43;2.10;;;1.30;;
62957;SDS011;49056;48.352;10.926;2023-06-19T17:33:03;2.05;;;1.12;;
62957;SDS011;49056;48.352;10.926;2023-06-19T17:38:25;2.00;;;1.35;;
62957;SDS011;49056;48.352;10.926;2023-06-19T17:43:45;2.23;;;1.40;;
62957;SDS011;49056;48.352;10.926;2023-06-19T17:49:06;1.27;;;1.07;;
62957;SDS011;49056;48.352;10.926;2023-06-19T17:54:26;1.80;;;1.37;;
62957;SDS011;49056;48.352;10.926;2023-06-19T17:59:47;1.90;;;1.30;;
62957;SDS011;49056;48.352;10.926;2023-06-19T18:05:07;2.58;;;1.50;;
62957;SDS011;49056;48.352;10.926;2023-06-19T18:10:28;2.20;;;1.13;;
62957;SDS011;49056;48.352;10.926;2023-06-19T18:15:48;1.65;;;1.15;;
62957;SDS011;49056;48.352;10.926;2023-06-19T18:21:08;1.90;;;1.20;;
62957;SDS011;49056;48.352;10.926;2023-06-19T18:26:28;1.50;;;1.00;;
62957;SDS011;49056;48.352;10.926;2023-06-19T18:31:49;2.33;;;1.55;;
62957;SDS011;49056;48.352;10.926;2023-06-19T18:37:09;2.87;;;1.33;;
62957;SDS011;49056;48.352;10.926;2023-06-19T18:42:30;4.07;;;1.52;;
62957;SDS011;49056;48.352;10.926;2023-06-19T18:47:51;1.92;;;1.30;;
62957;SDS011;49056;48.352;10.926;2023-06-19T18:53:11;2.67;;;1.60;;
62957;SDS011;49056;48.352;10.926;2023-06-19T18:58:32;2.10;;;1.50;;
62957;SDS011;49056;48.352;10.926;2023-06-19T19:03:52;2.53;;;1.50;;
62957;SDS011;49056;48.352;10.926;2023-06-19T19:09:12;1.60;;;1.20;;
62957;SDS011;49056;48.352;10.926;2023-06-19T19:14:32;3.45;;;1.50;;
62957;SDS011;49056;48.352;10.926;2023-06-19T19:19:53;2.90;;;1.67;;
62957;SDS011;49056;48.352;10.926;2023-06-19T19:25:13;2.22;;;1.33;;
62957;SDS011;49056;48.352;10.926;2023-06-19T19:30:34;2.62;;;1.50;;
62957;SDS011;49056;48.352;10.926;2023-06-19T19:35:54;2.55;;;1.75;;
62957;SDS011;49056;48.352;10.926;2023-06-19T19:41:14;3.53;;;1.93;;
62957;SDS011;49056;48.352;10.926;2023-06-19T19:46:35;2.70;;;1.77;;
62957;SDS011;49056;48.352;10.926;2023-06-19T19:51:55;2.70;;;1.70;;
62957;SDS011;49056;48.352;10.926;2023-06-19T19:57:15;2.70;;;1.67;;
62957;SDS011;49056;48.352;10.926;2023-06-19T20:02:36;2.80;;;1.67;;
62957;SDS011;49056;48.352;10.926;2023-06-19T20:07:56;2.40;;;1.60;;
62957;SDS011;49056;48.352;10.926;2023-06-19T20:13:16;2.70;;;1.62;;
62957;SDS011;49056;48.352;10.926;2023-06-19T20:18:37;2.20;;;1.35;;
62957;SDS011;49056;48.352;10.926;2023-06-19T20:23:57;2.58;;;1.70;;
62957;SDS011;49056;48.352;10.926;2023-06-19T20:29:17;2.55;;;1.80;;
62957;SDS011;49056;48.352;10.926;2023-06-19T20:34:38;3.20;;;2.00;;
62957;SDS011;49056;48.352;10.926;2023-06-19T20:39:59;2.65;;;1.70;;
62957;SDS011;49056;48.352;10.926;2023-06-19T20:45:23;3.03;;;2.00;;
62957;SDS011;49056;48.352;10.926;2023-06-19T20:50:46;2.45;;;1.70;;
62957;SDS011;49056;48.352;10.926;2023-06-19T20:56:06;2.65;;;1.60;;
62957;SDS011;49056;48.352;10.926;2023-06-19T21:01:26;1.90;;;1.37;;
62957;SDS011;49056;48.352;10.926;2023-06-19T21:06:47;3.33;;;1.85;;
62957;SDS011;49056;48.352;10.926;2023-06-19T21:12:07;2.78;;;1.67;;
62957;SDS011;49056;48.352;10.926;2023-06-19T21:17:28;3.12;;;2.00;;
62957;SDS011;49056;48.352;10.926;2023-06-19T21:22:48;2.83;;;1.75;;
62957;SDS011;49056;48.352;10.926;2023-06-19T21:28:09;3.80;;;2.37;;
62957;SDS011;49056;48.352;10.926;2023-06-19T21:33:29;3.45;;;2.03;;
62957;SDS011;49056;48.352;10.926;2023-06-19T21:38:52;2.92;;;1.87;;
62957;SDS011;49056;48.352;10.926;2023-06-19T21:44:12;2.57;;;1.67;;
62957;SDS011;49056;48.352;10.926;2023-06-19T21:49:32;3.95;;;2.00;;
62957;SDS011;49056;48.352;10.926;2023-06-19T21:54:53;3.47;;;2.10;;
62957;SDS011;49056;48.352;10.926;2023-06-19T22:00:13;3.10;;;1.97;;
62957;SDS011;49056;48.352;10.926;2023-06-19T22:05:34;2.37;;;1.75;;
62957;SDS011;49056;48.352;10.926;2023-06-19T22:10:54;2.30;;;1.70;;
62957;SDS011;49056;48.352;10.926;2023-06-19T22:16:15;3.22;;;1.73;;
62957;SDS011;49056;48.352;10.926;2023-06-19T22:21:35;2.87;;;1.83;;
62957;SDS011;49056;48.352;10.926;2023-06-19T22:26:56;2.47;;;1.80;;
62957;SDS011;49056;48.352;10.926;2023-06-19T22:32:16;3.08;;;1.60;;
62957;SDS011;49056;48.352;10.926;2023-06-19T22:37:38;3.28;;;1.95;;
62957;SDS011;49056;48.352;10.926;2023-06-19T22:42:59;2.62;;;1.60;;
62957;SDS011;49056;48.352;10.926;2023-06-19T22:48:19;2.90;;;1.60;;
62957;SDS011;49056;48.352;10.926;2023-06-19T22:53:39;2.90;;;2.00;;
62957;SDS011;49056;48.352;10.926;2023-06-19T22:59:01;2.90;;;1.67;;
62957;SDS011;49056;48.352;10.926;2023-06-19T23:04:22;2.50;;;1.47;;
62957;SDS011;49056;48.352;10.926;2023-06-19T23:09:42;2.30;;;1.43;;
62957;SDS011;49056;48.352;10.926;2023-06-19T23:15:05;3.72;;;1.58;;
62957;SDS011;49056;48.352;10.926;2023-06-19T23:20:29;2.97;;;1.73;;
62957;SDS011;49056;48.352;10.926;2023-06-19T23:25:49;2.62;;;1.58;;
62957;SDS011;49056;48.352;10.926;2023-06-19T23:31:10;3.60;;;1.70;;
62957;SDS011;49056;48.352;10.926;2023-06-19T23:36:30;3.20;;;1.80;;
62957;SDS011;49056;48.352;10.926;2023-06-19T23:41:50;2.50;;;1.60;;
62957;SDS011;49056;48.352;10.926;2023-06-19T23:47:11;1.73;;;1.37;;
62957;SDS011;49056;48.352;10.926;2023-06-19T23:52:31;2.10;;;1.30;;
62957;SDS011;49056;48.352;10.926;2023-06-19T23:57:51;2.60;;;1.43;;
